createdAt,value
2022-11-16T00:02:57.512Z,99281.03
2022-11-16T00:06:02.218Z,99273.22
2022-11-16T00:09:23.116Z,99264.59
2022-11-16T00:12:25.344Z,99267.97
2022-11-16T00:15:27.983Z,99259.91
2022-11-16T00:18:31.107Z,99255.41
2022-11-16T00:21:34.039Z,99259.81
2022-11-16T00:24:36.294Z,99269.50
2022-11-16T00:27:38.499Z,99266.66
2022-11-16T00:30:40.972Z,99257.84
2022-11-16T00:33:43.186Z,99256.84
2022-11-16T00:36:45.695Z,99258.59
2022-11-16T00:39:47.921Z,99258.59
2022-11-16T00:42:50.213Z,99250.91
2022-11-16T00:45:52.619Z,99246.59
2022-11-16T00:48:54.869Z,99249.03
2022-11-16T00:51:57.097Z,99247.91
2022-11-16T00:54:59.312Z,99249.50
2022-11-16T00:58:01.552Z,99237.78
2022-11-16T01:01:08.524Z,99239.28
2022-11-16T01:04:10.978Z,99230.28
2022-11-16T01:07:13.166Z,99236.47
2022-11-16T01:10:21.424Z,99229.34
2022-11-16T01:13:23.569Z,99218.06
2022-11-16T01:16:25.889Z,99211.00
2022-11-16T01:19:28.354Z,99212.72
2022-11-16T01:22:30.693Z,99209.25
2022-11-16T01:25:33.167Z,99209.16
2022-11-16T01:28:35.858Z,99199.47
2022-11-16T01:34:57.719Z,99204.06
2022-11-16T01:38:00.043Z,99198.81
2022-11-16T01:41:02.284Z,99199.97
2022-11-16T01:44:33.361Z,99192.44
2022-11-16T01:47:35.621Z,99184.28
2022-11-16T01:50:39.189Z,99183.06
2022-11-16T01:53:41.822Z,99191.13
2022-11-16T01:56:47.811Z,99188.69
2022-11-16T01:59:54.134Z,99177.53
2022-11-16T02:02:56.607Z,99173.41
2022-11-16T02:06:26.939Z,99167.38
2022-11-16T02:09:59.612Z,99155.28
2022-11-16T02:13:04.860Z,99158.94
2022-11-16T02:16:25.737Z,99151.62
2022-11-16T02:19:55.625Z,99147.69
2022-11-16T02:23:34.288Z,99140.56
2022-11-16T02:26:39.208Z,99128.28
2022-11-16T02:29:52.498Z,99133.53
2022-11-16T02:33:18.147Z,99125.81
2022-11-16T02:36:24.262Z,99121.59
2022-11-16T02:39:30.183Z,99110.81
2022-11-16T02:42:41.618Z,99126.13
2022-11-16T02:45:48.356Z,99100.13
2022-11-16T02:48:55.261Z,99105.00
2022-11-16T02:51:59.171Z,99107.44
2022-11-16T02:55:01.510Z,99109.03
2022-11-16T02:58:11.577Z,99106.97
2022-11-16T03:01:23.977Z,99097.97
2022-11-16T03:04:38.060Z,99084.06
2022-11-16T03:07:48.215Z,99099.44
2022-11-16T03:11:14.199Z,99086.97
2022-11-16T03:14:20.796Z,99076.56
2022-11-16T03:17:30.316Z,99074.13
2022-11-16T03:20:35.709Z,99075.06
2022-11-16T03:23:38.209Z,99073.38
2022-11-16T03:27:07.364Z,99075.28
2022-11-16T03:30:18.986Z,99068.50
2022-11-16T03:33:29.428Z,99065.16
2022-11-16T03:36:35.222Z,99060.81
2022-11-16T03:39:39.867Z,99058.28
2022-11-16T03:42:43.148Z,99054.06
2022-11-16T03:45:47.005Z,99056.13
2022-11-16T03:48:49.221Z,99056.63
2022-11-16T03:51:52.144Z,99047.34
2022-11-16T03:54:54.338Z,99055.50
2022-11-16T03:57:56.656Z,99046.22
2022-11-16T04:00:59.401Z,99048.09
2022-11-16T04:04:01.706Z,99046.88
2022-11-16T04:07:22.496Z,99045.38
2022-11-16T04:10:43.833Z,99049.09
2022-11-16T04:14:09.074Z,99052.09
2022-11-16T04:17:35.146Z,99044.50
2022-11-16T04:20:56.507Z,99047.97
2022-11-16T04:24:13.868Z,99059.22
2022-11-16T04:27:35.369Z,99042.44
2022-11-16T04:30:56.167Z,99041.59
2022-11-16T04:34:16.864Z,99034.47
2022-11-16T04:37:38.219Z,99031.59
2022-11-16T04:40:40.623Z,99027.25
2022-11-16T04:43:42.822Z,99018.63
2022-11-16T04:47:04.133Z,99024.47
2022-11-16T04:50:06.731Z,99010.75
2022-11-16T04:53:09.425Z,99001.97
2022-11-16T04:56:12.668Z,99007.41
2022-11-16T04:59:15.165Z,99006.94
2022-11-16T05:02:17.380Z,99000.16
2022-11-16T05:05:20.187Z,99001.22
2022-11-16T05:08:22.395Z,99000.53
2022-11-16T05:11:24.676Z,98998.22
2022-11-16T05:14:27.083Z,99000.06
2022-11-16T05:17:29.878Z,99000.44
2022-11-16T05:20:50.924Z,98992.03
2022-11-16T05:24:11.727Z,98992.03
2022-11-16T05:27:17.255Z,98991.06
2022-11-16T05:30:20.049Z,98991.72
2022-11-16T05:33:22.298Z,98989.22
2022-11-16T05:36:24.655Z,98987.91
2022-11-16T05:39:26.993Z,98985.16
2022-11-16T05:42:29.272Z,98980.59
2022-11-16T05:45:31.579Z,98980.59
2022-11-16T05:48:33.988Z,98979.66
2022-11-16T05:51:38.347Z,98969.16
2022-11-16T05:54:40.603Z,98962.25
2022-11-16T05:57:43.140Z,98975.34
2022-11-16T06:00:48.547Z,98964.87
2022-11-16T06:03:51.361Z,98972.81
2022-11-16T06:06:53.812Z,98954.56
2022-11-16T06:09:56.129Z,98958.09
2022-11-16T06:12:58.368Z,98958.94
2022-11-16T06:16:01.362Z,98966.91
2022-11-16T06:19:03.591Z,98957.06
2022-11-16T06:22:05.867Z,98961.28
2022-11-16T06:25:08.675Z,98961.09
2022-11-16T06:28:11.184Z,98962.69
2022-11-16T06:31:13.723Z,98955.47
2022-11-16T06:34:16.275Z,98965.59
2022-11-16T06:37:19.125Z,98951.44
2022-11-16T06:40:21.622Z,98959.81
2022-11-16T06:43:27.336Z,98959.63
2022-11-16T06:46:29.485Z,98959.13
2022-11-16T06:49:32.402Z,98957.25
2022-11-16T06:52:34.720Z,98957.06
2022-11-16T06:55:37.020Z,98952.34
2022-11-16T06:58:41.692Z,98947.84
2022-11-16T07:01:45.270Z,98949.44
2022-11-16T07:04:47.591Z,98948.38
2022-11-16T07:07:54.602Z,98936.66
2022-11-16T07:11:01.520Z,98942.28
2022-11-16T07:14:06.196Z,98930.22
2022-11-16T07:17:09.813Z,98931.63
2022-11-16T07:20:12.313Z,98929.88
2022-11-16T07:23:14.549Z,98918.75
2022-11-16T07:26:16.827Z,98912.88
2022-11-16T07:29:19.676Z,98905.44
2022-11-16T07:32:22.394Z,98902.38
2022-11-16T07:35:25.175Z,98897.34
2022-11-16T07:38:27.361Z,98895.66
2022-11-16T07:41:29.607Z,98884.50
2022-11-16T07:44:31.789Z,98876.09
2022-11-16T07:47:38.139Z,98885.75
2022-11-16T07:50:40.397Z,98877.75
2022-11-16T07:53:43.911Z,98883.84
2022-11-16T07:56:46.120Z,98882.56
2022-11-16T07:59:48.363Z,98880.56
2022-11-16T08:02:50.979Z,98876.75
2022-11-16T08:06:08.624Z,98869.16
2022-11-16T08:09:11.012Z,98867.75
2022-11-16T08:12:13.672Z,98871.34
2022-11-16T08:15:16.078Z,98866.19
2022-11-16T08:18:19.693Z,98869.25
2022-11-16T08:21:21.917Z,98863.59
2022-11-16T08:24:24.192Z,98873.69
2022-11-16T08:27:26.464Z,98870.22
2022-11-16T08:30:28.724Z,98870.94
2022-11-16T08:33:31.032Z,98862.94
2022-11-16T08:36:33.311Z,98867.75
2022-11-16T08:39:35.570Z,98857.00
2022-11-16T08:42:43.254Z,98857.41
2022-11-16T08:45:49.761Z,98861.59
2022-11-16T08:48:56.729Z,98864.84
2022-11-16T08:51:58.945Z,98860.66
2022-11-16T08:55:01.169Z,98861.97
2022-11-16T08:58:03.657Z,98857.00
2022-11-16T09:01:14.677Z,98852.88
2022-11-16T09:04:18.927Z,98864.28
2022-11-16T09:07:21.988Z,98857.75
2022-11-16T09:10:26.166Z,98857.91
2022-11-16T09:13:28.732Z,98856.06
2022-11-16T09:16:30.897Z,98850.50
2022-11-16T09:19:35.134Z,98850.78
2022-11-16T09:22:37.343Z,98845.28
2022-11-16T09:25:39.595Z,98846.09
2022-11-16T09:28:41.917Z,98851.22
2022-11-16T09:31:44.212Z,98846.69
2022-11-16T09:34:46.448Z,98842.34
2022-11-16T09:37:48.679Z,98850.63
2022-11-16T09:40:50.935Z,98844.53
2022-11-16T09:44:10.882Z,98853.22
2022-11-16T09:47:22.590Z,98843.75
2022-11-16T09:50:33.937Z,98842.91
2022-11-16T09:53:45.510Z,98846.72
2022-11-16T09:56:51.794Z,98841.66
2022-11-16T10:00:00.901Z,98837.56
2022-11-16T10:03:06.910Z,98834.16
2022-11-16T10:06:21.458Z,98823.72
2022-11-16T10:09:24.458Z,98823.56
2022-11-16T10:12:44.224Z,98792.16
2022-11-16T10:16:00.573Z,98819.03
2022-11-16T10:19:21.813Z,98809.47
2022-11-16T10:22:59.062Z,98805.63
2022-11-16T10:26:25.658Z,98802.25
2022-11-16T10:30:05.306Z,98794.13
2022-11-16T10:33:13.405Z,98790.78
2022-11-16T10:36:16.788Z,98780.00
2022-11-16T10:39:20.768Z,98777.88
2022-11-16T10:42:31.422Z,98773.34
2022-11-16T10:45:40.366Z,98772.28
2022-11-16T10:49:11.725Z,98768.31
2022-11-16T10:52:13.993Z,98759.97
2022-11-16T10:55:16.808Z,98751.84
2022-11-16T10:58:19.066Z,98745.28
2022-11-16T11:01:29.076Z,98745.91
2022-11-16T11:04:32.880Z,98741.47
2022-11-16T11:07:40.287Z,98747.38
2022-11-16T11:10:43.015Z,98732.78
2022-11-16T11:13:45.265Z,98738.88
2022-11-16T11:16:53.162Z,98731.69
2022-11-16T11:20:15.508Z,98740.53
2022-11-16T11:23:24.141Z,98738.97
2022-11-16T11:26:37.122Z,98737.16
2022-11-16T11:29:43.349Z,98733.56
2022-11-16T11:32:46.789Z,98730.94
2022-11-16T11:36:02.317Z,98736.41
2022-11-16T11:39:13.835Z,98737.16
2022-11-16T11:42:15.889Z,98734.75
2022-11-16T11:45:20.054Z,98732.59
2022-11-16T11:48:34.097Z,98728.97
2022-11-16T11:51:42.418Z,98732.44
2022-11-16T11:54:49.573Z,98724.09
2022-11-16T11:57:53.976Z,98725.63
2022-11-16T12:01:25.775Z,98725.88
2022-11-16T12:04:43.649Z,98723.47
2022-11-16T12:07:48.591Z,98722.47
2022-11-16T12:11:29.504Z,98724.62
2022-11-16T12:15:17.146Z,98720.91
2022-11-16T12:18:54.904Z,98729.84
2022-11-16T12:22:37.662Z,98728.66
2022-11-16T12:26:00.007Z,98726.03
2022-11-16T12:29:34.538Z,98728.34
2022-11-16T12:33:04.659Z,98733.94
2022-11-16T12:36:24.950Z,98730.38
2022-11-16T12:39:56.065Z,98728.44
2022-11-16T12:43:17.808Z,98729.88
2022-11-16T12:46:35.093Z,98726.66
2022-11-16T12:49:58.506Z,98723.69
2022-11-16T12:53:35.293Z,98719.13
2022-11-16T12:56:49.149Z,98725.72
2022-11-16T13:00:12.263Z,98722.84
2022-11-16T13:03:31.649Z,98717.22
2022-11-16T13:06:44.151Z,98722.00
2022-11-16T13:09:51.654Z,98722.72
2022-11-16T13:13:29.666Z,98726.31
2022-11-16T13:16:25.645Z,98721.16
2022-11-16T13:19:28.408Z,98725.72
2022-11-16T13:22:33.878Z,98718.44
2022-11-16T13:25:40.870Z,98722.78
2022-11-16T13:29:00.447Z,98726.13
2022-11-16T13:32:14.517Z,98732.34
2022-11-16T13:35:18.722Z,98736.28
2022-11-16T13:38:51.111Z,98733.47
2022-11-16T13:42:12.041Z,98730.25
2022-11-16T13:45:20.945Z,98733.84
2022-11-16T13:48:33.852Z,98740.91
2022-11-16T13:51:36.380Z,98740.16
2022-11-16T13:54:47.078Z,98737.53
2022-11-16T13:57:53.105Z,98732.59
2022-11-16T14:01:09.063Z,98732.50
2022-11-16T14:07:50.826Z,98739.19
2022-11-16T14:10:53.167Z,98735.63
2022-11-16T14:13:55.561Z,98740.91
2022-11-16T14:16:57.798Z,98735.63
2022-11-16T14:20:00.351Z,98723.31
2022-11-16T14:23:39.835Z,98730.00
2022-11-16T14:27:00.237Z,98723.78
2022-11-16T14:30:33.115Z,98720.31
2022-11-16T14:33:37.128Z,98729.78
2022-11-16T14:36:43.339Z,98731.47
2022-11-16T14:39:46.048Z,98725.47
2022-11-16T14:46:35.906Z,98710.75
2022-11-16T14:49:47.269Z,98719.34
2022-11-16T14:52:52.781Z,98713.16
2022-11-16T14:56:08.079Z,98713.16
2022-11-16T14:59:17.023Z,98704.28
2022-11-16T15:02:27.600Z,98713.16
2022-11-16T15:05:34.633Z,98707.06
2022-11-16T15:08:51.942Z,98710.75
2022-11-16T15:12:14.028Z,98708.81
2022-11-16T15:15:19.534Z,98706.31
2022-11-16T15:18:23.418Z,98714.22
2022-11-16T15:21:25.873Z,98720.44
2022-11-16T15:24:35.376Z,98732.03
2022-11-16T15:27:40.917Z,98728.34
2022-11-16T15:30:46.936Z,98715.28
2022-11-16T15:33:50.551Z,98709.19
2022-11-16T15:36:52.856Z,98713.59
2022-11-16T15:39:56.591Z,98720.78
2022-11-16T15:43:00.875Z,98722.47
2022-11-16T15:46:04.969Z,98719.09
2022-11-16T15:49:37.207Z,98724.38
2022-11-16T15:52:54.833Z,98721.00
2022-11-16T15:55:57.204Z,98735.13
2022-11-16T15:59:09.583Z,98735.13
2022-11-16T16:02:19.335Z,98726.47
2022-11-16T16:05:37.155Z,98732.72
2022-11-16T16:08:40.892Z,98734.59
2022-11-16T16:11:43.360Z,98726.72
2022-11-16T16:14:46.767Z,98720.75
2022-11-16T16:17:49.800Z,98717.25
2022-11-16T16:20:52.034Z,98703.38
2022-11-16T16:23:56.241Z,98717.50
2022-11-16T16:26:58.602Z,98724.53
2022-11-16T16:30:05.582Z,98714.88
2022-11-16T16:33:15.965Z,98721.91
2022-11-16T16:36:18.189Z,98714.13
2022-11-16T16:39:21.108Z,98704.66
2022-11-16T16:42:23.460Z,98704.56
2022-11-16T16:45:41.871Z,98695.09
2022-11-16T16:48:44.897Z,98702.25
2022-11-16T16:51:47.262Z,98706.69
2022-11-16T16:54:49.892Z,98706.78
2022-11-16T16:57:54.451Z,98702.47
2022-11-16T17:01:01.166Z,98701.78
2022-11-16T17:04:03.855Z,98700.91
2022-11-16T17:07:08.939Z,98707.25
2022-11-16T17:10:11.523Z,98711.66
2022-11-16T17:13:14.156Z,98714.63
2022-11-16T17:16:18.861Z,98715.06
2022-11-16T17:19:21.708Z,98722.97
2022-11-16T17:22:24.415Z,98718.88
2022-11-16T17:25:27.294Z,98729.09
2022-11-16T17:28:30.117Z,98731.13
2022-11-16T17:31:32.570Z,98740.06
2022-11-16T17:34:35.000Z,98738.16
2022-11-16T17:37:37.758Z,98747.12
2022-11-16T17:40:40.728Z,98739.34
2022-11-16T17:43:44.694Z,98737.66
2022-11-16T17:46:47.840Z,98731.69
2022-11-16T17:49:50.418Z,98733.47
2022-11-16T17:52:52.972Z,98729.13
2022-11-16T17:55:58.820Z,98732.72
2022-11-16T17:59:14.369Z,98742.41
2022-11-16T18:02:16.959Z,98737.97
2022-11-16T18:05:19.887Z,98734.31
2022-11-16T18:08:22.620Z,98733.22
2022-11-16T18:11:30.185Z,98732.38
2022-11-16T18:14:32.787Z,98730.50
2022-11-16T18:17:36.890Z,98720.50
2022-11-16T18:20:39.822Z,98724.38
2022-11-16T18:23:42.917Z,98738.88
2022-11-16T18:26:45.564Z,98748.31
2022-11-16T18:29:48.736Z,98747.59
2022-11-16T18:32:51.700Z,98753.56
2022-11-16T18:35:55.092Z,98738.00
2022-11-16T18:38:57.835Z,98739.72
2022-11-16T18:42:00.502Z,98745.81
2022-11-16T18:45:05.617Z,98749.72
2022-11-16T18:48:08.538Z,98747.06
2022-11-16T18:51:11.888Z,98745.19
2022-11-16T18:54:14.228Z,98750.53
2022-11-16T19:00:58.517Z,98757.19
2022-11-16T19:04:01.380Z,98735.75
2022-11-16T19:07:04.237Z,98737.44
2022-11-16T19:10:07.665Z,98741.22
2022-11-16T19:13:10.300Z,98742.50
2022-11-16T19:16:14.313Z,98743.56
2022-11-16T19:19:17.058Z,98734.56
2022-11-16T19:22:20.328Z,98731.59
2022-11-16T19:25:25.895Z,98731.72
2022-11-16T19:28:28.538Z,98732.03
2022-11-16T19:31:33.212Z,98736.44
2022-11-16T19:34:36.391Z,98733.28
2022-11-16T19:37:39.341Z,98740.69
2022-11-16T19:40:44.838Z,98737.09
2022-11-16T19:43:50.751Z,98745.94
2022-11-16T19:46:55.081Z,98747.94
2022-11-16T19:49:57.823Z,98746.34
2022-11-16T19:53:00.477Z,98758.25
2022-11-16T19:56:03.744Z,98742.06
2022-11-16T19:59:06.432Z,98726.81
2022-11-16T20:02:10.836Z,98726.28
2022-11-16T20:05:19.569Z,98727.53
2022-11-16T20:08:22.592Z,98730.47
2022-11-16T20:11:34.616Z,98743.72
2022-11-16T20:14:37.377Z,98733.84
2022-11-16T20:17:40.222Z,98726.59
2022-11-16T20:20:42.781Z,98729.97
2022-11-16T20:23:46.210Z,98712.63
2022-11-16T20:26:49.969Z,98718.91
2022-11-16T20:29:52.947Z,98715.66
2022-11-16T20:32:55.771Z,98720.37
2022-11-16T20:36:03.301Z,98732.66
2022-11-16T20:39:06.153Z,98718.41
2022-11-16T20:42:09.108Z,98713.34
2022-11-16T20:45:12.813Z,98719.66
2022-11-16T20:48:16.030Z,98732.97
2022-11-16T20:51:20.077Z,98732.12
2022-11-16T20:54:24.954Z,98736.44
2022-11-16T20:57:27.395Z,98745.25
2022-11-16T21:00:31.092Z,98746.94
2022-11-16T21:03:34.385Z,98740.53
2022-11-16T21:06:37.047Z,98737.69
2022-11-16T21:09:59.312Z,98747.06
2022-11-16T21:13:20.645Z,98739.09
2022-11-16T21:16:23.310Z,98746.00
2022-11-16T21:19:25.807Z,98740.88
2022-11-16T21:22:32.116Z,98739.00
2022-11-16T21:25:35.194Z,98728.69
2022-11-16T21:28:39.070Z,98733.75
2022-11-16T21:31:41.446Z,98734.56
2022-11-16T21:34:43.673Z,98755.59
2022-11-16T21:37:45.998Z,98767.63
2022-11-16T21:40:48.564Z,98777.44
2022-11-16T21:43:51.306Z,98773.00
2022-11-16T21:46:54.246Z,98767.75
2022-11-16T21:50:29.587Z,98771.12
2022-11-16T21:53:18.727Z,98784.97
2022-11-16T21:56:25.106Z,98789.41
2022-11-16T21:59:27.294Z,98791.19
2022-11-16T22:02:29.621Z,98790.34
2022-11-16T22:05:50.319Z,98786.03
2022-11-16T22:08:53.063Z,98787.19
2022-11-16T22:11:55.324Z,98781.22
2022-11-16T22:14:58.649Z,98779.41
2022-11-16T22:18:01.982Z,98791.72
2022-11-16T22:21:05.405Z,98777.72
2022-11-16T22:24:07.963Z,98782.13
2022-11-16T22:27:10.281Z,98778.78
2022-11-16T22:30:12.752Z,98775.09
2022-11-16T22:33:19.741Z,98765.66
2022-11-16T22:36:22.353Z,98777.00
2022-11-16T22:39:24.694Z,98783.09
2022-11-16T22:42:27.034Z,98781.22
2022-11-16T22:45:29.353Z,98785.59
2022-11-16T22:48:39.842Z,98782.75
2022-11-16T22:51:42.058Z,98775.75
2022-11-16T22:54:44.361Z,98774.87
2022-11-16T22:57:46.564Z,98771.34
2022-11-16T23:00:48.808Z,98770.38
2022-11-16T23:03:51.439Z,98762.50
2022-11-16T23:06:53.686Z,98769.62
2022-11-16T23:09:56.006Z,98767.88
2022-11-16T23:13:16.794Z,98760.91
2022-11-16T23:16:19.019Z,98751.37
2022-11-16T23:19:40.876Z,98753.25
2022-11-16T23:23:01.600Z,98748.84
2022-11-16T23:26:28.471Z,98756.72
2022-11-16T23:29:30.656Z,98756.81
2022-11-16T23:32:32.889Z,98767.31
2022-11-16T23:35:35.159Z,98766.37
2022-11-16T23:38:37.342Z,98769.13
2022-11-16T23:41:58.274Z,98764.78
2022-11-16T23:45:00.598Z,98759.53
2022-11-16T23:48:02.829Z,98738.53
2022-11-16T23:51:05.109Z,98746.53
2022-11-16T23:54:07.673Z,98741.28
2022-11-16T23:57:10.085Z,98738.09
